sensor_id;sensor_type;location;lat;lon;timestamp;P1;durP1;ratioP1;P2;durP2;ratioP2
25155;SDS011;71253;51.496;7.606;2023-09-30T00:01:37;72.35;;;20.88;;
25155;SDS011;71253;51.496;7.606;2023-09-30T00:06:39;82.72;;;22.88;;
25155;SDS011;71253;51.496;7.606;2023-09-30T00:11:40;78.10;;;22.20;;
25155;SDS011;71253;51.496;7.606;2023-09-30T00:16:42;91.85;;;20.98;;
25155;SDS011;71253;51.496;7.606;2023-09-30T00:21:45;78.97;;;18.15;;
25155;SDS011;71253;51.496;7.606;2023-09-30T00:26:46;78.70;;;17.85;;
25155;SDS011;71253;51.496;7.606;2023-09-30T00:31:48;63.92;;;16.17;;
25155;SDS011;71253;51.496;7.606;2023-09-30T00:36:49;61.67;;;16.25;;
25155;SDS011;71253;51.496;7.606;2023-09-30T00:41:51;59.60;;;13.70;;
25155;SDS011;71253;51.496;7.606;2023-09-30T00:46:55;62.33;;;13.70;;
25155;SDS011;71253;51.496;7.606;2023-09-30T00:51:57;79.85;;;16.10;;
25155;SDS011;71253;51.496;7.606;2023-09-30T00:56:59;61.95;;;14.02;;
25155;SDS011;71253;51.496;7.606;2023-09-30T01:02:01;65.13;;;14.27;;
25155;SDS011;71253;51.496;7.606;2023-09-30T01:07:03;67.85;;;12.23;;
25155;SDS011;71253;51.496;7.606;2023-09-30T01:12:05;67.10;;;12.50;;
25155;SDS011;71253;51.496;7.606;2023-09-30T01:17:07;62.47;;;13.02;;
25155;SDS011;71253;51.496;7.606;2023-09-30T01:22:09;57.78;;;13.13;;
25155;SDS011;71253;51.496;7.606;2023-09-30T01:27:12;58.13;;;11.15;;
25155;SDS011;71253;51.496;7.606;2023-09-30T01:32:14;56.65;;;10.77;;
25155;SDS011;71253;51.496;7.606;2023-09-30T01:37:16;73.05;;;13.55;;
25155;SDS011;71253;51.496;7.606;2023-09-30T01:42:17;59.25;;;11.60;;
25155;SDS011;71253;51.496;7.606;2023-09-30T01:47:19;62.67;;;11.90;;
25155;SDS011;71253;51.496;7.606;2023-09-30T01:52:20;65.70;;;12.38;;
25155;SDS011;71253;51.496;7.606;2023-09-30T01:57:22;59.53;;;13.15;;
25155;SDS011;71253;51.496;7.606;2023-09-30T02:02:23;69.50;;;13.68;;
25155;SDS011;71253;51.496;7.606;2023-09-30T02:07:25;75.03;;;17.33;;
25155;SDS011;71253;51.496;7.606;2023-09-30T02:12:27;66.35;;;18.65;;
25155;SDS011;71253;51.496;7.606;2023-09-30T02:17:29;74.25;;;17.83;;
25155;SDS011;71253;51.496;7.606;2023-09-30T02:22:30;70.18;;;15.20;;
25155;SDS011;71253;51.496;7.606;2023-09-30T02:27:32;77.30;;;17.00;;
25155;SDS011;71253;51.496;7.606;2023-09-30T02:32:34;60.55;;;14.77;;
25155;SDS011;71253;51.496;7.606;2023-09-30T02:37:35;61.25;;;13.13;;
25155;SDS011;71253;51.496;7.606;2023-09-30T02:42:37;63.05;;;11.30;;
25155;SDS011;71253;51.496;7.606;2023-09-30T02:47:40;68.85;;;12.27;;
25155;SDS011;71253;51.496;7.606;2023-09-30T02:52:41;48.35;;;10.93;;
25155;SDS011;71253;51.496;7.606;2023-09-30T02:57:43;56.13;;;11.80;;
25155;SDS011;71253;51.496;7.606;2023-09-30T03:02:44;55.20;;;11.70;;
25155;SDS011;71253;51.496;7.606;2023-09-30T03:07:46;56.30;;;10.63;;
25155;SDS011;71253;51.496;7.606;2023-09-30T03:12:52;54.35;;;14.38;;
25155;SDS011;71253;51.496;7.606;2023-09-30T03:17:54;79.13;;;17.70;;
25155;SDS011;71253;51.496;7.606;2023-09-30T03:22:56;90.57;;;20.75;;
25155;SDS011;71253;51.496;7.606;2023-09-30T03:27:58;77.00;;;22.35;;
25155;SDS011;71253;51.496;7.606;2023-09-30T03:33:00;79.93;;;20.15;;
25155;SDS011;71253;51.496;7.606;2023-09-30T03:38:01;77.85;;;18.92;;
25155;SDS011;71253;51.496;7.606;2023-09-30T03:43:03;75.93;;;17.90;;
25155;SDS011;71253;51.496;7.606;2023-09-30T03:48:05;80.32;;;19.85;;
25155;SDS011;71253;51.496;7.606;2023-09-30T03:53:07;99.43;;;24.63;;
25155;SDS011;71253;51.496;7.606;2023-09-30T03:58:09;97.45;;;25.95;;
25155;SDS011;71253;51.496;7.606;2023-09-30T04:03:10;122.30;;;32.60;;
25155;SDS011;71253;51.496;7.606;2023-09-30T04:08:12;95.32;;;24.05;;
25155;SDS011;71253;51.496;7.606;2023-09-30T04:13:13;87.00;;;24.10;;
25155;SDS011;71253;51.496;7.606;2023-09-30T04:18:15;87.95;;;22.60;;
25155;SDS011;71253;51.496;7.606;2023-09-30T04:23:16;93.72;;;24.75;;
25155;SDS011;71253;51.496;7.606;2023-09-30T04:28:18;100.07;;;25.98;;
25155;SDS011;71253;51.496;7.606;2023-09-30T04:33:20;117.90;;;28.23;;
25155;SDS011;71253;51.496;7.606;2023-09-30T04:38:21;103.43;;;26.88;;
25155;SDS011;71253;51.496;7.606;2023-09-30T04:43:23;91.22;;;25.88;;
25155;SDS011;71253;51.496;7.606;2023-09-30T04:48:24;89.63;;;25.95;;
25155;SDS011;71253;51.496;7.606;2023-09-30T04:53:26;93.28;;;27.58;;
25155;SDS011;71253;51.496;7.606;2023-09-30T04:58:27;99.38;;;26.90;;
25155;SDS011;71253;51.496;7.606;2023-09-30T05:03:29;75.75;;;20.95;;
25155;SDS011;71253;51.496;7.606;2023-09-30T05:08:31;72.85;;;18.77;;
25155;SDS011;71253;51.496;7.606;2023-09-30T05:13:32;76.90;;;19.85;;
25155;SDS011;71253;51.496;7.606;2023-09-30T05:18:34;67.25;;;19.92;;
25155;SDS011;71253;51.496;7.606;2023-09-30T05:23:36;77.22;;;19.35;;
25155;SDS011;71253;51.496;7.606;2023-09-30T05:28:38;76.18;;;20.38;;
25155;SDS011;71253;51.496;7.606;2023-09-30T05:33:40;86.97;;;24.40;;
25155;SDS011;71253;51.496;7.606;2023-09-30T05:38:41;101.85;;;26.88;;
25155;SDS011;71253;51.496;7.606;2023-09-30T05:43:43;90.95;;;24.98;;
25155;SDS011;71253;51.496;7.606;2023-09-30T05:48:44;90.22;;;25.13;;
25155;SDS011;71253;51.496;7.606;2023-09-30T05:53:46;113.35;;;32.22;;
25155;SDS011;71253;51.496;7.606;2023-09-30T05:58:49;145.07;;;40.53;;
25155;SDS011;71253;51.496;7.606;2023-09-30T06:03:50;101.10;;;34.33;;
25155;SDS011;71253;51.496;7.606;2023-09-30T06:08:52;74.32;;;24.45;;
25155;SDS011;71253;51.496;7.606;2023-09-30T06:13:54;66.55;;;18.08;;
25155;SDS011;71253;51.496;7.606;2023-09-30T06:18:56;44.78;;;14.20;;
25155;SDS011;71253;51.496;7.606;2023-09-30T06:23:57;38.85;;;12.85;;
25155;SDS011;71253;51.496;7.606;2023-09-30T06:28:59;36.83;;;9.00;;
25155;SDS011;71253;51.496;7.606;2023-09-30T06:34:00;31.83;;;7.43;;
25155;SDS011;71253;51.496;7.606;2023-09-30T06:39:02;28.02;;;7.82;;
25155;SDS011;71253;51.496;7.606;2023-09-30T06:44:03;21.90;;;7.03;;
25155;SDS011;71253;51.496;7.606;2023-09-30T06:49:05;28.70;;;7.28;;
25155;SDS011;71253;51.496;7.606;2023-09-30T06:54:10;30.27;;;7.65;;
25155;SDS011;71253;51.496;7.606;2023-09-30T06:59:11;25.52;;;7.45;;
25155;SDS011;71253;51.496;7.606;2023-09-30T07:04:13;26.52;;;8.02;;
25155;SDS011;71253;51.496;7.606;2023-09-30T07:09:14;22.10;;;8.77;;
25155;SDS011;71253;51.496;7.606;2023-09-30T07:14:16;25.38;;;7.72;;
25155;SDS011;71253;51.496;7.606;2023-09-30T07:19:17;25.55;;;8.00;;
25155;SDS011;71253;51.496;7.606;2023-09-30T07:24:19;27.40;;;8.52;;
25155;SDS011;71253;51.496;7.606;2023-09-30T07:29:21;20.75;;;7.18;;
25155;SDS011;71253;51.496;7.606;2023-09-30T07:34:22;23.17;;;6.65;;
25155;SDS011;71253;51.496;7.606;2023-09-30T07:39:24;22.95;;;5.97;;
25155;SDS011;71253;51.496;7.606;2023-09-30T07:44:25;22.98;;;6.07;;
25155;SDS011;71253;51.496;7.606;2023-09-30T07:49:27;22.30;;;5.72;;
25155;SDS011;71253;51.496;7.606;2023-09-30T07:54:28;22.52;;;7.82;;
25155;SDS011;71253;51.496;7.606;2023-09-30T07:59:31;37.25;;;10.18;;
25155;SDS011;71253;51.496;7.606;2023-09-30T08:04:33;30.83;;;8.85;;
25155;SDS011;71253;51.496;7.606;2023-09-30T08:09:35;27.92;;;9.25;;
25155;SDS011;71253;51.496;7.606;2023-09-30T08:14:36;27.55;;;9.18;;
25155;SDS011;71253;51.496;7.606;2023-09-30T08:19:38;26.70;;;8.45;;
25155;SDS011;71253;51.496;7.606;2023-09-30T08:24:39;24.75;;;6.57;;
25155;SDS011;71253;51.496;7.606;2023-09-30T08:29:41;26.25;;;6.30;;
25155;SDS011;71253;51.496;7.606;2023-09-30T08:34:43;17.92;;;5.82;;
25155;SDS011;71253;51.496;7.606;2023-09-30T08:39:44;21.83;;;7.55;;
25155;SDS011;71253;51.496;7.606;2023-09-30T08:44:46;18.67;;;6.10;;
25155;SDS011;71253;51.496;7.606;2023-09-30T08:49:48;20.40;;;5.07;;
25155;SDS011;71253;51.496;7.606;2023-09-30T08:54:53;15.75;;;5.13;;
25155;SDS011;71253;51.496;7.606;2023-09-30T08:59:55;19.92;;;5.10;;
25155;SDS011;71253;51.496;7.606;2023-09-30T09:04:58;19.13;;;5.75;;
25155;SDS011;71253;51.496;7.606;2023-09-30T09:10:03;19.23;;;5.20;;
25155;SDS011;71253;51.496;7.606;2023-09-30T09:15:06;16.35;;;4.93;;
25155;SDS011;71253;51.496;7.606;2023-09-30T09:20:16;18.05;;;5.28;;
25155;SDS011;71253;51.496;7.606;2023-09-30T09:25:20;20.27;;;4.80;;
25155;SDS011;71253;51.496;7.606;2023-09-30T09:30:25;15.65;;;4.45;;
25155;SDS011;71253;51.496;7.606;2023-09-30T09:35:28;14.40;;;4.45;;
25155;SDS011;71253;51.496;7.606;2023-09-30T09:40:31;19.45;;;4.72;;
25155;SDS011;71253;51.496;7.606;2023-09-30T09:45:35;18.27;;;4.68;;
25155;SDS011;71253;51.496;7.606;2023-09-30T09:50:37;18.13;;;4.80;;
25155;SDS011;71253;51.496;7.606;2023-09-30T09:55:40;15.52;;;4.55;;
25155;SDS011;71253;51.496;7.606;2023-09-30T10:00:43;16.77;;;4.38;;
25155;SDS011;71253;51.496;7.606;2023-09-30T10:05:45;14.75;;;4.40;;
25155;SDS011;71253;51.496;7.606;2023-09-30T10:10:48;18.00;;;4.68;;
25155;SDS011;71253;51.496;7.606;2023-09-30T10:15:50;16.38;;;4.40;;
25155;SDS011;71253;51.496;7.606;2023-09-30T10:20:53;12.90;;;3.92;;
25155;SDS011;71253;51.496;7.606;2023-09-30T10:31:11;13.35;;;3.80;;
25155;SDS011;71253;51.496;7.606;2023-09-30T10:36:13;12.13;;;4.13;;
25155;SDS011;71253;51.496;7.606;2023-09-30T10:41:48;13.82;;;3.70;;
25155;SDS011;71253;51.496;7.606;2023-09-30T10:46:42;15.57;;;3.90;;
25155;SDS011;71253;51.496;7.606;2023-09-30T10:51:44;15.82;;;3.63;;
25155;SDS011;71253;51.496;7.606;2023-09-30T10:56:45;11.95;;;3.47;;
25155;SDS011;71253;51.496;7.606;2023-09-30T11:01:49;11.18;;;3.58;;
25155;SDS011;71253;51.496;7.606;2023-09-30T11:06:51;12.02;;;3.17;;
25155;SDS011;71253;51.496;7.606;2023-09-30T11:11:53;11.80;;;3.85;;
25155;SDS011;71253;51.496;7.606;2023-09-30T11:16:55;14.70;;;3.58;;
25155;SDS011;71253;51.496;7.606;2023-09-30T11:21:58;14.32;;;3.80;;
25155;SDS011;71253;51.496;7.606;2023-09-30T11:27:00;12.63;;;3.42;;
25155;SDS011;71253;51.496;7.606;2023-09-30T11:32:01;9.77;;;3.35;;
25155;SDS011;71253;51.496;7.606;2023-09-30T11:37:03;12.93;;;3.22;;
25155;SDS011;71253;51.496;7.606;2023-09-30T11:42:12;17.52;;;3.83;;
25155;SDS011;71253;51.496;7.606;2023-09-30T11:47:16;10.63;;;3.25;;
25155;SDS011;71253;51.496;7.606;2023-09-30T11:52:30;11.13;;;4.07;;
25155;SDS011;71253;51.496;7.606;2023-09-30T11:57:31;12.73;;;4.07;;
25155;SDS011;71253;51.496;7.606;2023-09-30T12:02:33;15.77;;;4.05;;
25155;SDS011;71253;51.496;7.606;2023-09-30T12:07:34;15.43;;;3.75;;
25155;SDS011;71253;51.496;7.606;2023-09-30T12:12:36;12.68;;;4.10;;
25155;SDS011;71253;51.496;7.606;2023-09-30T12:17:38;9.75;;;3.70;;
25155;SDS011;71253;51.496;7.606;2023-09-30T12:22:39;15.90;;;3.97;;
25155;SDS011;71253;51.496;7.606;2023-09-30T12:27:41;12.15;;;3.75;;
25155;SDS011;71253;51.496;7.606;2023-09-30T12:32:42;12.35;;;4.15;;
25155;SDS011;71253;51.496;7.606;2023-09-30T12:37:44;15.57;;;4.35;;
25155;SDS011;71253;51.496;7.606;2023-09-30T12:42:45;11.32;;;4.30;;
25155;SDS011;71253;51.496;7.606;2023-09-30T12:47:47;13.00;;;3.47;;
25155;SDS011;71253;51.496;7.606;2023-09-30T12:52:49;10.30;;;3.10;;
25155;SDS011;71253;51.496;7.606;2023-09-30T12:57:50;12.27;;;4.32;;
25155;SDS011;71253;51.496;7.606;2023-09-30T13:02:52;9.68;;;3.13;;
25155;SDS011;71253;51.496;7.606;2023-09-30T13:07:54;10.70;;;3.45;;
25155;SDS011;71253;51.496;7.606;2023-09-30T13:12:56;9.18;;;3.13;;
25155;SDS011;71253;51.496;7.606;2023-09-30T13:17:57;7.85;;;2.97;;
25155;SDS011;71253;51.496;7.606;2023-09-30T13:22:59;8.57;;;3.20;;
25155;SDS011;71253;51.496;7.606;2023-09-30T13:28:01;9.85;;;3.53;;
25155;SDS011;71253;51.496;7.606;2023-09-30T13:33:02;11.35;;;3.20;;
25155;SDS011;71253;51.496;7.606;2023-09-30T13:38:04;10.70;;;3.38;;
25155;SDS011;71253;51.496;7.606;2023-09-30T13:43:06;11.77;;;3.75;;
25155;SDS011;71253;51.496;7.606;2023-09-30T13:48:07;7.95;;;3.38;;
25155;SDS011;71253;51.496;7.606;2023-09-30T13:53:09;7.82;;;3.25;;
25155;SDS011;71253;51.496;7.606;2023-09-30T13:58:11;9.70;;;3.55;;
25155;SDS011;71253;51.496;7.606;2023-09-30T14:03:12;9.85;;;3.35;;
25155;SDS011;71253;51.496;7.606;2023-09-30T14:08:14;7.32;;;3.10;;
25155;SDS011;71253;51.496;7.606;2023-09-30T14:13:16;14.77;;;3.60;;
25155;SDS011;71253;51.496;7.606;2023-09-30T14:18:17;10.68;;;3.67;;
25155;SDS011;71253;51.496;7.606;2023-09-30T14:23:19;9.80;;;3.75;;
25155;SDS011;71253;51.496;7.606;2023-09-30T14:28:20;12.18;;;3.85;;
25155;SDS011;71253;51.496;7.606;2023-09-30T14:33:22;324.90;;;24.40;;
25155;SDS011;71253;51.496;7.606;2023-09-30T14:38:24;13.52;;;4.25;;
25155;SDS011;71253;51.496;7.606;2023-09-30T14:43:25;10.10;;;3.75;;
25155;SDS011;71253;51.496;7.606;2023-09-30T14:48:27;9.68;;;4.03;;
25155;SDS011;71253;51.496;7.606;2023-09-30T14:53:29;10.23;;;4.15;;
25155;SDS011;71253;51.496;7.606;2023-09-30T14:58:30;11.15;;;4.28;;
25155;SDS011;71253;51.496;7.606;2023-09-30T15:03:32;12.23;;;4.10;;
25155;SDS011;71253;51.496;7.606;2023-09-30T15:08:33;15.02;;;4.75;;
25155;SDS011;71253;51.496;7.606;2023-09-30T15:13:35;26.25;;;5.60;;
25155;SDS011;71253;51.496;7.606;2023-09-30T15:18:36;14.30;;;4.13;;
25155;SDS011;71253;51.496;7.606;2023-09-30T15:23:38;9.05;;;3.80;;
25155;SDS011;71253;51.496;7.606;2023-09-30T15:28:40;11.65;;;3.58;;
25155;SDS011;71253;51.496;7.606;2023-09-30T15:33:41;18.98;;;3.80;;
25155;SDS011;71253;51.496;7.606;2023-09-30T15:38:43;9.45;;;3.92;;
25155;SDS011;71253;51.496;7.606;2023-09-30T15:43:44;15.77;;;4.00;;
25155;SDS011;71253;51.496;7.606;2023-09-30T15:48:46;10.30;;;3.90;;
25155;SDS011;71253;51.496;7.606;2023-09-30T15:53:47;8.85;;;4.00;;
25155;SDS011;71253;51.496;7.606;2023-09-30T15:58:49;12.13;;;4.07;;
25155;SDS011;71253;51.496;7.606;2023-09-30T16:03:50;10.55;;;3.97;;
25155;SDS011;71253;51.496;7.606;2023-09-30T16:08:52;11.82;;;3.63;;
25155;SDS011;71253;51.496;7.606;2023-09-30T16:13:54;11.70;;;3.90;;
25155;SDS011;71253;51.496;7.606;2023-09-30T16:18:56;13.98;;;4.75;;
25155;SDS011;71253;51.496;7.606;2023-09-30T16:23:57;9.25;;;4.30;;
25155;SDS011;71253;51.496;7.606;2023-09-30T16:28:59;15.82;;;4.15;;
25155;SDS011;71253;51.496;7.606;2023-09-30T16:34:00;12.48;;;5.20;;
25155;SDS011;71253;51.496;7.606;2023-09-30T16:39:02;23.95;;;9.35;;
25155;SDS011;71253;51.496;7.606;2023-09-30T16:44:04;96.50;;;54.53;;
25155;SDS011;71253;51.496;7.606;2023-09-30T16:49:06;22.00;;;5.85;;
25155;SDS011;71253;51.496;7.606;2023-09-30T16:54:08;16.52;;;6.25;;
25155;SDS011;71253;51.496;7.606;2023-09-30T16:59:09;12.27;;;4.45;;
25155;SDS011;71253;51.496;7.606;2023-09-30T17:04:11;16.15;;;5.07;;
25155;SDS011;71253;51.496;7.606;2023-09-30T17:09:13;14.63;;;4.88;;
25155;SDS011;71253;51.496;7.606;2023-09-30T17:14:14;14.25;;;4.90;;
25155;SDS011;71253;51.496;7.606;2023-09-30T17:19:16;19.02;;;4.90;;
25155;SDS011;71253;51.496;7.606;2023-09-30T17:24:18;18.40;;;5.00;;
25155;SDS011;71253;51.496;7.606;2023-09-30T17:29:19;13.50;;;4.72;;
25155;SDS011;71253;51.496;7.606;2023-09-30T17:34:21;12.50;;;4.38;;
25155;SDS011;71253;51.496;7.606;2023-09-30T17:39:23;21.70;;;5.70;;
25155;SDS011;71253;51.496;7.606;2023-09-30T17:44:25;12.93;;;4.80;;
25155;SDS011;71253;51.496;7.606;2023-09-30T17:49:26;16.73;;;5.35;;
25155;SDS011;71253;51.496;7.606;2023-09-30T17:54:28;14.65;;;5.35;;
25155;SDS011;71253;51.496;7.606;2023-09-30T17:59:30;13.05;;;5.00;;
25155;SDS011;71253;51.496;7.606;2023-09-30T18:04:32;20.40;;;5.60;;
25155;SDS011;71253;51.496;7.606;2023-09-30T18:09:34;13.93;;;5.35;;
25155;SDS011;71253;51.496;7.606;2023-09-30T18:14:36;15.20;;;5.38;;
25155;SDS011;71253;51.496;7.606;2023-09-30T18:19:38;15.98;;;5.55;;
25155;SDS011;71253;51.496;7.606;2023-09-30T18:24:39;17.45;;;5.78;;
25155;SDS011;71253;51.496;7.606;2023-09-30T18:29:41;14.00;;;5.93;;
25155;SDS011;71253;51.496;7.606;2023-09-30T18:34:43;16.48;;;6.18;;
25155;SDS011;71253;51.496;7.606;2023-09-30T18:39:44;12.18;;;5.45;;
25155;SDS011;71253;51.496;7.606;2023-09-30T18:44:46;17.33;;;5.97;;
25155;SDS011;71253;51.496;7.606;2023-09-30T18:49:48;16.67;;;5.88;;
25155;SDS011;71253;51.496;7.606;2023-09-30T18:54:49;15.30;;;5.82;;
25155;SDS011;71253;51.496;7.606;2023-09-30T18:59:51;16.25;;;6.05;;
25155;SDS011;71253;51.496;7.606;2023-09-30T19:04:52;13.02;;;5.72;;
25155;SDS011;71253;51.496;7.606;2023-09-30T19:09:54;17.15;;;5.95;;
25155;SDS011;71253;51.496;7.606;2023-09-30T19:14:56;22.55;;;6.20;;
25155;SDS011;71253;51.496;7.606;2023-09-30T19:19:57;19.10;;;6.53;;
25155;SDS011;71253;51.496;7.606;2023-09-30T19:24:59;14.93;;;6.40;;
25155;SDS011;71253;51.496;7.606;2023-09-30T19:30:00;19.95;;;7.78;;
25155;SDS011;71253;51.496;7.606;2023-09-30T19:35:02;19.95;;;7.15;;
25155;SDS011;71253;51.496;7.606;2023-09-30T19:40:04;14.00;;;6.97;;
25155;SDS011;71253;51.496;7.606;2023-09-30T19:45:07;16.20;;;6.40;;
25155;SDS011;71253;51.496;7.606;2023-09-30T19:50:09;20.80;;;7.20;;
25155;SDS011;71253;51.496;7.606;2023-09-30T19:55:10;21.90;;;7.65;;
25155;SDS011;71253;51.496;7.606;2023-09-30T20:00:12;23.52;;;7.18;;
25155;SDS011;71253;51.496;7.606;2023-09-30T20:05:14;18.55;;;7.50;;
25155;SDS011;71253;51.496;7.606;2023-09-30T20:10:16;21.88;;;7.97;;
25155;SDS011;71253;51.496;7.606;2023-09-30T20:15:17;19.77;;;7.75;;
25155;SDS011;71253;51.496;7.606;2023-09-30T20:20:19;19.55;;;7.43;;
25155;SDS011;71253;51.496;7.606;2023-09-30T20:25:21;17.60;;;8.15;;
25155;SDS011;71253;51.496;7.606;2023-09-30T20:30:22;19.40;;;7.45;;
25155;SDS011;71253;51.496;7.606;2023-09-30T20:35:24;24.02;;;7.20;;
25155;SDS011;71253;51.496;7.606;2023-09-30T20:40:25;20.48;;;7.47;;
25155;SDS011;71253;51.496;7.606;2023-09-30T20:45:28;19.20;;;7.28;;
25155;SDS011;71253;51.496;7.606;2023-09-30T20:50:30;18.88;;;7.72;;
25155;SDS011;71253;51.496;7.606;2023-09-30T20:55:32;21.83;;;7.65;;
25155;SDS011;71253;51.496;7.606;2023-09-30T21:00:34;24.15;;;7.55;;
25155;SDS011;71253;51.496;7.606;2023-09-30T21:05:36;22.80;;;7.95;;
25155;SDS011;71253;51.496;7.606;2023-09-30T21:10:38;19.63;;;7.47;;
25155;SDS011;71253;51.496;7.606;2023-09-30T21:15:40;19.83;;;8.63;;
25155;SDS011;71253;51.496;7.606;2023-09-30T21:20:42;18.77;;;7.97;;
25155;SDS011;71253;51.496;7.606;2023-09-30T21:25:43;24.25;;;7.88;;
25155;SDS011;71253;51.496;7.606;2023-09-30T21:30:45;18.13;;;7.82;;
25155;SDS011;71253;51.496;7.606;2023-09-30T21:35:53;14.95;;;7.70;;
25155;SDS011;71253;51.496;7.606;2023-09-30T21:40:56;18.80;;;8.65;;
25155;SDS011;71253;51.496;7.606;2023-09-30T21:45:58;18.88;;;8.15;;
25155;SDS011;71253;51.496;7.606;2023-09-30T21:50:59;20.15;;;8.88;;
25155;SDS011;71253;51.496;7.606;2023-09-30T21:56:01;26.00;;;8.07;;
25155;SDS011;71253;51.496;7.606;2023-09-30T22:01:03;17.30;;;6.80;;
25155;SDS011;71253;51.496;7.606;2023-09-30T22:06:04;14.48;;;5.38;;
25155;SDS011;71253;51.496;7.606;2023-09-30T22:11:06;16.05;;;5.90;;
25155;SDS011;71253;51.496;7.606;2023-09-30T22:16:07;18.73;;;6.43;;
25155;SDS011;71253;51.496;7.606;2023-09-30T22:21:09;12.98;;;6.05;;
25155;SDS011;71253;51.496;7.606;2023-09-30T22:26:11;13.02;;;6.30;;
25155;SDS011;71253;51.496;7.606;2023-09-30T22:31:12;12.20;;;6.07;;
25155;SDS011;71253;51.496;7.606;2023-09-30T22:36:14;17.02;;;5.97;;
25155;SDS011;71253;51.496;7.606;2023-09-30T22:41:15;14.73;;;5.43;;
25155;SDS011;71253;51.496;7.606;2023-09-30T22:46:17;14.77;;;6.15;;
25155;SDS011;71253;51.496;7.606;2023-09-30T22:51:19;16.25;;;6.13;;
25155;SDS011;71253;51.496;7.606;2023-09-30T22:56:20;17.95;;;6.60;;
25155;SDS011;71253;51.496;7.606;2023-09-30T23:01:22;17.10;;;6.45;;
25155;SDS011;71253;51.496;7.606;2023-09-30T23:06:24;17.33;;;6.30;;
25155;SDS011;71253;51.496;7.606;2023-09-30T23:11:26;16.08;;;5.78;;
25155;SDS011;71253;51.496;7.606;2023-09-30T23:16:27;13.95;;;6.03;;
25155;SDS011;71253;51.496;7.606;2023-09-30T23:21:32;16.17;;;6.30;;
25155;SDS011;71253;51.496;7.606;2023-09-30T23:26:33;15.27;;;6.05;;
25155;SDS011;71253;51.496;7.606;2023-09-30T23:31:35;15.00;;;6.25;;
25155;SDS011;71253;51.496;7.606;2023-09-30T23:36:36;13.27;;;5.47;;
25155;SDS011;71253;51.496;7.606;2023-09-30T23:41:38;16.83;;;6.10;;
25155;SDS011;71253;51.496;7.606;2023-09-30T23:46:40;13.90;;;6.00;;
25155;SDS011;71253;51.496;7.606;2023-09-30T23:51:42;16.02;;;6.05;;
25155;SDS011;71253;51.496;7.606;2023-09-30T23:56:43;16.20;;;6.45;;
